Time;durP1;ratioP1;P1;durP2;ratioP2;P2;SDS_P1;SDS_P2;PMS_P1;PMS_P2;Temp;Humidity;BMP_temperature;BMP_pressure;BME280_temperature;BME280_humidity;BME280_pressure;Samples;Min_cycle;Max_cycle;Signal;HPM_P1;HPM_P2
2022/09/05 00:02:03;;;;;;;6.40;4.00;;;18.10;66.10;;;;;;4889710;29;20318;-66
2022/09/05 00:04:49;;;;;;;4.23;3.23;;;18.10;65.90;;;;;;4912686;29;20319;-67
2022/09/05 00:07:41;;;;;;;4.37;3.50;;;18.00;65.70;;;;;;4906100;29;20292;-67
2022/09/05 00:10:28;;;;;;;4.63;3.17;;;18.10;66.10;;;;;;4909089;29;20295;-67
2022/09/05 00:12:58;;;;;;;3.67;3.27;;;18.00;65.80;;;;;;4906274;29;20338;-67
2022/09/05 00:15:29;;;;;;;4.77;3.50;;;18.00;65.70;;;;;;4912080;29;20814;-67
2022/09/05 00:18:04;;;;;;;5.30;3.70;;;18.00;65.70;;;;;;4913441;29;20363;-67
2022/09/05 00:20:52;;;;;;;4.93;3.65;;;18.00;65.80;;;;;;4896655;29;20292;-67
2022/09/05 00:23:36;;;;;;;4.53;3.70;;;18.00;66.30;;;;;;4905008;29;20048;-67
2022/09/05 00:26:46;;;;;;;4.53;3.50;;;17.90;66.20;;;;;;4915247;29;20326;-67
2022/09/05 00:29:25;;;;;;;4.37;3.50;;;17.90;66.00;;;;;;4866806;29;20371;-67
2022/09/05 00:32:25;;;;;;;4.90;3.83;;;17.90;66.00;;;;;;4900645;29;20372;-67
2022/09/05 00:35:17;;;;;;;7.17;3.93;;;17.90;66.00;;;;;;4911078;29;20638;-67
2022/09/05 00:37:47;;;;;;;6.30;3.90;;;17.90;66.00;;;;;;4894180;29;20280;-67
2022/09/05 00:40:47;;;;;;;4.53;3.87;;;17.90;66.30;;;;;;4902409;29;20742;-67
2022/09/05 00:43:24;;;;;;;5.47;3.80;;;17.90;66.20;;;;;;4902285;29;20409;-67
2022/09/05 00:46:12;;;;;;;4.97;3.80;;;17.80;66.50;;;;;;4911873;29;20965;-67
2022/09/05 00:48:57;;;;;;;4.87;4.37;;;17.80;66.60;;;;;;4913024;29;20299;-67
2022/09/05 00:51:47;;;;;;;5.00;4.00;;;17.80;66.60;;;;;;4926106;29;20311;-67
2022/09/05 00:54:19;;;;;;;4.23;3.83;;;17.70;66.90;;;;;;4908873;29;20717;-67
2022/09/05 00:56:52;;;;;;;5.13;4.20;;;17.70;66.80;;;;;;4888722;29;20299;-67
2022/09/05 00:59:39;;;;;;;4.07;3.67;;;17.70;67.00;;;;;;4907879;29;20399;-67
2022/09/05 01:02:37;;;;;;;5.33;4.03;;;17.70;67.00;;;;;;4915470;29;20872;-67
2022/09/05 01:05:15;;;;;;;5.30;4.10;;;17.60;67.20;;;;;;4903831;29;20678;-67
2022/09/05 01:08:03;;;;;;;6.03;4.50;;;17.60;67.30;;;;;;4898326;29;21103;-67
2022/09/05 01:11:04;;;;;;;5.93;4.40;;;17.60;67.40;;;;;;4915180;29;20300;-67
2022/09/05 01:14:01;;;;;;;4.40;4.00;;;17.50;67.30;;;;;;4899723;29;20299;-67
2022/09/05 01:17:04;;;;;;;5.27;4.27;;;17.50;67.90;;;;;;4903849;29;20306;-67
2022/09/05 01:19:56;;;;;;;5.50;4.40;;;17.40;67.80;;;;;;4902455;29;20314;-67
2022/09/05 01:22:37;;;;;;;4.37;3.97;;;17.40;67.70;;;;;;4908089;29;20312;-67
2022/09/05 01:25:34;;;;;;;6.33;5.00;;;17.30;67.70;;;;;;4902437;29;20283;-67
2022/09/05 01:28:22;;;;;;;5.40;4.50;;;17.30;68.20;;;;;;4908763;29;20298;-67
2022/09/05 01:31:20;;;;;;;7.27;4.40;;;17.20;68.00;;;;;;4911028;29;20347;-67
2022/09/05 01:34:00;;;;;;;6.57;4.47;;;17.20;68.10;;;;;;4900818;29;20296;-67
2022/09/05 01:36:56;;;;;;;4.80;4.30;;;17.10;68.30;;;;;;4902036;29;20331;-67
2022/09/05 01:40:11;;;;;;;5.20;4.60;;;17.10;68.70;;;;;;4884565;29;20343;-67
2022/09/05 01:43:16;;;;;;;5.43;4.67;;;17.00;68.40;;;;;;4871466;29;20063;-67
2022/09/05 01:45:57;;;;;;;5.57;4.60;;;17.00;69.00;;;;;;4901915;29;20292;-67
2022/09/05 01:48:35;;;;;;;5.33;4.63;;;16.90;68.80;;;;;;4903331;29;20291;-67
2022/09/05 01:51:39;;;;;;;5.60;5.00;;;16.90;68.80;;;;;;4908465;29;20732;-67
2022/09/05 01:54:33;;;;;;;7.17;5.23;;;16.90;68.80;;;;;;4847375;29;20358;-67
2022/09/05 01:57:08;;;;;;;6.53;5.10;;;16.80;69.10;;;;;;4912680;29;20292;-67
2022/09/05 01:59:54;;;;;;;5.43;4.93;;;16.70;69.20;;;;;;4906552;29;20642;-67
2022/09/05 02:02:39;;;;;;;5.37;4.87;;;16.70;69.20;;;;;;4915588;29;20051;-67
2022/09/05 02:05:25;;;;;;;;;;;16.60;69.30;;;;;;4895162;29;20292;-67
2022/09/05 02:08:09;;;;;;;7.55;5.00;;;16.60;70.00;;;;;;4864787;29;19998;-67
2022/09/05 02:10:54;;;;;;;6.60;5.23;;;16.50;69.30;;;;;;4906822;29;20481;-67
2022/09/05 02:13:33;;;;;;;7.10;5.47;;;16.40;69.70;;;;;;4903084;29;20284;-67
2022/09/05 02:15:59;;;;;;;8.27;5.37;;;16.40;69.80;;;;;;4905913;29;20334;-67
2022/09/05 02:18:43;;;;;;;6.80;6.07;;;16.40;69.90;;;;;;4911121;29;20299;-67
2022/09/05 02:21:18;;;;;;;5.97;5.37;;;16.30;70.30;;;;;;4906787;29;20044;-67
2022/09/05 02:24:12;;;;;;;6.27;5.53;;;16.30;70.30;;;;;;4910578;29;20319;-67
2022/09/05 02:27:02;;;;;;;6.17;5.57;;;16.20;70.60;;;;;;4906528;29;20391;-67
2022/09/05 02:30:07;;;;;;;6.60;5.50;;;16.20;70.60;;;;;;4913644;29;20315;-67
2022/09/05 02:32:55;;;;;;;6.03;5.27;;;16.10;70.70;;;;;;4925312;29;20464;-67
2022/09/05 02:35:34;;;;;;;9.60;5.90;;;16.00;70.90;;;;;;4921263;29;20291;-67
2022/09/05 02:38:20;;;;;;;6.23;5.40;;;16.00;70.70;;;;;;4914893;29;20749;-67
2022/09/05 02:41:02;;;;;;;7.80;6.07;;;16.00;71.30;;;;;;4901351;29;20287;-67
2022/09/05 02:43:49;;;;;;;6.87;6.17;;;15.90;71.40;;;;;;4908505;29;20804;-67
2022/09/05 02:46:47;;;;;;;7.00;5.90;;;15.90;71.20;;;;;;4911187;29;20288;-67
2022/09/05 02:49:26;;;;;;;6.30;5.70;;;15.80;71.60;;;;;;4909897;29;20287;-67
2022/09/05 02:52:04;;;;;;;7.37;6.17;;;15.80;71.50;;;;;;4922141;29;20288;-67
2022/09/05 02:54:33;;;;;;;7.10;5.90;;;15.80;71.80;;;;;;4893087;29;20291;-67
2022/09/05 02:57:42;;;;;;;6.60;6.00;;;15.80;71.60;;;;;;4914119;29;20303;-67
2022/09/05 03:00:26;;;;;;;7.90;6.40;;;15.80;72.00;;;;;;4908780;29;20644;-67
2022/09/05 03:03:07;;;;;;;6.75;6.05;;;15.70;71.80;;;;;;4915110;29;20307;-67
2022/09/05 03:06:11;;;;;;;8.40;6.33;;;15.70;72.00;;;;;;4913691;29;20130;-67
2022/09/05 03:09:07;;;;;;;8.23;6.60;;;15.60;72.10;;;;;;4910963;29;20700;-67
2022/09/05 03:11:57;;;;;;;7.70;6.37;;;15.60;72.20;;;;;;4917809;29;20292;-67
2022/09/05 03:14:26;;;;;;;6.97;6.27;;;15.60;72.30;;;;;;4901397;29;20795;-67
2022/09/05 03:17:12;;;;;;;6.87;6.17;;;15.60;72.50;;;;;;4918064;29;20287;-67
2022/09/05 03:19:53;;;;;;;7.20;6.50;;;15.50;72.80;;;;;;4913160;29;20292;-67
2022/09/05 03:22:34;;;;;;;8.03;6.17;;;15.50;72.70;;;;;;4925232;29;20850;-67
2022/09/05 03:25:21;;;;;;;8.20;6.33;;;15.50;73.00;;;;;;4919283;29;20293;-67
2022/09/05 03:28:02;;;;;;;12.83;6.57;;;15.50;72.90;;;;;;4913091;29;20288;-67
2022/09/05 03:31:06;;;;;;;8.33;7.00;;;15.50;73.00;;;;;;4918195;29;20341;-67
2022/09/05 03:33:52;;;;;;;9.90;6.10;;;15.50;73.20;;;;;;4929654;29;20852;-67
2022/09/05 03:36:56;;;;;;;7.57;6.50;;;15.50;72.90;;;;;;4910797;29;20291;-67
2022/09/05 03:39:59;;;;;;;7.17;6.30;;;15.50;73.10;;;;;;4918695;29;20299;-67
2022/09/05 03:42:52;;;;;;;8.97;7.20;;;15.50;73.30;;;;;;4892480;29;20340;-67
2022/09/05 03:45:36;;;;;;;8.13;7.23;;;15.50;73.40;;;;;;4912350;29;20288;-67
2022/09/05 03:48:11;;;;;;;7.97;6.87;;;15.40;73.60;;;;;;4897039;29;20769;-67
2022/09/05 03:50:45;;;;;;;;;;;15.40;73.50;;;;;;4907779;29;20290;-67
2022/09/05 03:53:48;;;;;;;9.97;7.37;;;15.40;74.10;;;;;;4903524;29;19919;-67
2022/09/05 03:56:31;;;;;;;8.30;7.10;;;15.40;73.40;;;;;;4907256;29;20311;-67
2022/09/05 03:59:24;;;;;;;8.50;6.63;;;15.40;73.60;;;;;;4889503;29;20291;-67
2022/09/05 04:01:56;;;;;;;8.50;7.60;;;15.30;73.50;;;;;;4914063;29;20370;-67
2022/09/05 04:04:32;;;;;;;9.73;7.20;;;15.30;73.70;;;;;;4895421;29;20375;-67
2022/09/05 04:07:02;;;;;;;9.03;6.50;;;15.30;73.80;;;;;;4910675;29;20284;-67
2022/09/05 04:09:44;;;;;;;12.07;7.07;;;15.30;73.70;;;;;;4909438;29;20292;-67
2022/09/05 04:12:18;;;;;;;8.90;7.10;;;15.30;73.90;;;;;;4912548;29;20817;-67
2022/09/05 04:14:58;;;;;;;7.63;6.93;;;15.30;74.10;;;;;;4913688;29;20303;-67
2022/09/05 04:17:34;;;;;;;8.10;6.83;;;15.30;74.10;;;;;;4921467;29;20376;-67
2022/09/05 04:20:18;;;;;;;7.60;6.83;;;15.30;73.90;;;;;;4895083;29;20410;-67
2022/09/05 04:23:02;;;;;;;8.60;7.30;;;15.30;74.10;;;;;;4911306;29;20487;-67
2022/09/05 04:25:37;;;;;;;9.30;7.25;;;15.30;74.30;;;;;;4912812;29;20734;-67
2022/09/05 04:28:06;;;;;;;8.23;6.80;;;15.30;74.40;;;;;;4893509;29;20641;-67
2022/09/05 04:30:45;;;;;;;8.00;7.20;;;15.30;74.10;;;;;;4892371;29;20040;-67
2022/09/05 04:33:44;;;;;;;8.10;7.23;;;15.30;74.30;;;;;;4910863;29;20291;-67
2022/09/05 04:36:19;;;;;;;7.90;6.97;;;15.30;74.40;;;;;;4887527;29;20287;-67
2022/09/05 04:39:03;;;;;;;9.75;7.40;;;15.30;74.50;;;;;;4906483;29;20280;-67
2022/09/05 04:41:32;;;;;;;8.77;6.88;;;15.20;74.50;;;;;;4890298;29;20167;-67
2022/09/05 04:44:06;;;;;;;8.97;7.00;;;15.20;74.90;;;;;;4909209;29;20040;-67
2022/09/05 04:46:41;;;;;;;8.43;7.00;;;15.20;74.50;;;;;;4911471;29;20956;-67
2022/09/05 04:49:13;;;;;;;8.73;7.20;;;15.20;74.70;;;;;;4929176;29;20283;-67
2022/09/05 04:52:16;;;;;;;10.13;7.00;;;15.20;74.90;;;;;;4917739;29;20047;-67
2022/09/05 04:54:48;;;;;;;8.43;7.43;;;15.20;74.90;;;;;;4858684;29;20347;-67
2022/09/05 04:57:23;;;;;;;8.23;7.33;;;15.20;74.90;;;;;;4890675;29;20301;-67
2022/09/05 05:00:07;;;;;;;13.13;6.88;;;15.30;75.20;;;;;;4905707;29;20296;-67
2022/09/05 05:02:37;;;;;;;11.37;7.43;;;15.30;75.00;;;;;;4897741;29;20086;-67
2022/09/05 05:05:22;;;;;;;9.80;7.63;;;15.30;74.80;;;;;;4905401;29;20271;-67
2022/09/05 05:08:18;;;;;;;8.40;7.38;;;15.30;74.80;;;;;;4891999;29;20676;-67
2022/09/05 05:11:09;;;;;;;10.97;7.20;;;15.40;75.00;;;;;;4907450;29;20460;-67
2022/09/05 05:13:40;;;;;;;8.10;7.30;;;15.40;74.90;;;;;;4913001;29;20326;-67
2022/09/05 05:16:19;;;;;;;9.10;8.07;;;15.40;74.70;;;;;;4909269;29;20287;-67
2022/09/05 05:18:59;;;;;;;8.37;7.30;;;15.40;74.60;;;;;;4896127;29;20635;-67
2022/09/05 05:21:28;;;;;;;8.30;7.43;;;15.40;74.60;;;;;;4909539;29;20322;-67
2022/09/05 05:24:06;;;;;;;8.40;7.60;;;15.40;74.60;;;;;;4916004;29;20891;-67
2022/09/05 05:27:00;;;;;;;12.97;7.70;;;15.40;74.70;;;;;;4888158;29;20831;-67
2022/09/05 05:29:49;;;;;;;11.13;7.83;;;15.40;74.60;;;;;;4892152;29;20271;-67
2022/09/05 05:32:23;;;;;;;10.23;7.60;;;15.50;74.60;;;;;;4893555;29;20310;-67
2022/09/05 05:34:53;;;;;;;11.73;8.10;;;15.50;74.70;;;;;;4923662;29;20288;-67
2022/09/05 05:37:35;;;;;;;9.37;8.17;;;15.50;74.80;;;;;;4901653;29;20332;-67
2022/09/05 05:40:10;;;;;;;9.23;7.87;;;15.50;74.70;;;;;;4907176;29;20295;-67
2022/09/05 05:42:38;;;;;;;8.40;7.50;;;15.60;74.60;;;;;;4904210;29;20514;-67
2022/09/05 05:45:15;;;;;;;8.63;7.80;;;15.60;74.40;;;;;;4886145;29;20065;-67
2022/09/05 05:47:44;;;;;;;9.77;7.57;;;15.70;74.10;;;;;;4889638;29;20290;-67
2022/09/05 05:50:35;;;;;;;11.57;8.10;;;15.80;74.00;;;;;;4917570;29;20760;-67
2022/09/05 05:53:03;;;;;;;9.00;7.30;;;15.80;74.00;;;;;;4906967;29;20347;-67
2022/09/05 05:56:06;;;;;;;8.00;7.20;;;15.90;73.80;;;;;;4891571;29;20284;-67
2022/09/05 05:58:53;;;;;;;9.87;8.13;;;16.00;73.90;;;;;;4889384;29;20367;-67
2022/09/05 06:01:57;;;;;;;10.67;8.20;;;16.10;73.70;;;;;;4904242;29;20292;-67
2022/09/05 06:04:28;;;;;;;8.47;7.60;;;16.20;73.70;;;;;;4904148;29;20356;-67
2022/09/05 06:07:16;;;;;;;8.43;7.43;;;16.30;73.50;;;;;;4883507;29;20365;-67
2022/09/05 06:09:53;;;;;;;9.70;8.27;;;16.50;73.30;;;;;;4893346;29;20334;-67
2022/09/05 06:12:50;;;;;;;9.40;8.03;;;16.60;73.00;;;;;;4909092;29;20287;-67
2022/09/05 06:15:48;;;;;;;8.43;7.60;;;16.70;72.90;;;;;;4891419;29;20676;-67
2022/09/05 06:18:26;;;;;;;9.13;8.23;;;16.80;72.60;;;;;;4877566;29;20332;-67
2022/09/05 06:21:14;;;;;;;9.00;8.20;;;16.80;72.40;;;;;;4908770;29;20353;-67
2022/09/05 06:23:51;;;;;;;9.27;8.37;;;16.90;72.20;;;;;;4902476;29;20380;-67
2022/09/05 06:26:41;;;;;;;10.03;8.70;;;17.00;71.90;;;;;;4909057;29;20314;-67
2022/09/05 06:29:38;;;;;;;9.47;8.33;;;17.00;71.80;;;;;;4912588;29;20279;-67
2022/09/05 06:32:18;;;;;;;10.73;8.30;;;17.10;71.70;;;;;;4882386;29;20287;-67
2022/09/05 06:35:09;;;;;;;10.33;9.20;;;17.20;71.50;;;;;;4907736;29;20291;-67
2022/09/05 06:38:16;;;;;;;8.40;7.37;;;17.40;71.30;;;;;;4908901;29;20275;-67
2022/09/05 06:41:01;;;;;;;10.13;8.43;;;17.50;70.90;;;;;;4907056;29;20807;-67
2022/09/05 06:44:15;;;;;;;13.07;8.63;;;17.60;71.00;;;;;;4879177;29;20713;-67
2022/09/05 06:46:43;;;;;;;8.80;7.90;;;17.70;71.00;;;;;;4900219;29;20184;-67
2022/09/05 06:49:44;;;;;;;10.73;8.93;;;17.80;70.60;;;;;;4907260;29;20354;-67
2022/09/05 06:52:31;;;;;;;9.20;8.30;;;17.90;70.60;;;;;;4866012;29;20289;-67
2022/09/05 06:55:31;;;;;;;8.50;7.70;;;18.10;70.40;;;;;;4900476;29;20280;-67
2022/09/05 06:58:34;;;;;;;9.17;8.17;;;18.20;70.30;;;;;;4908887;29;20787;-67
2022/09/05 07:01:03;;;;;;;9.17;8.27;;;18.40;70.00;;;;;;4911541;29;20932;-67
2022/09/05 07:03:58;;;;;;;10.93;8.17;;;18.50;69.70;;;;;;4910509;29;20389;-67
2022/09/05 07:06:35;;;;;;;8.70;7.80;;;18.70;69.40;;;;;;4881834;29;20327;-67
2022/09/05 07:09:20;;;;;;;9.30;8.43;;;18.90;69.10;;;;;;4906796;29;20279;-67
2022/09/05 07:11:48;;;;;;;10.77;8.57;;;19.10;68.50;;;;;;4898017;29;20302;-67
2022/09/05 07:14:58;;;;;;;10.00;8.00;;;19.20;68.40;;;;;;4893246;29;20323;-67
2022/09/05 07:18:06;;;;;;;8.83;8.03;;;19.40;67.90;;;;;;4849759;29;20845;-67
2022/09/05 07:21:00;;;;;;;8.30;7.50;;;19.70;67.70;;;;;;4834644;29;20293;-67
2022/09/05 07:23:39;;;;;;;11.17;9.17;;;19.80;67.40;;;;;;4909203;29;20308;-67
2022/09/05 07:26:08;;;;;;;9.00;8.10;;;20.00;67.20;;;;;;4905451;29;20370;-67
2022/09/05 07:28:36;;;;;;;8.90;8.00;;;20.10;67.20;;;;;;4912576;29;20303;-67
2022/09/05 07:31:09;;;;;;;10.80;8.30;;;20.30;66.90;;;;;;4876396;29;20283;-67
2022/09/05 07:33:38;;;;;;;10.57;8.23;;;20.50;66.60;;;;;;4911432;29;20757;-67
2022/09/05 07:36:19;;;;;;;12.37;8.73;;;20.60;66.10;;;;;;4907534;29;20295;-67
2022/09/05 07:38:49;;;;;;;9.33;8.00;;;20.80;65.80;;;;;;4905729;29;20724;-67
2022/09/05 07:41:23;;;;;;;10.10;8.37;;;21.00;65.80;;;;;;4912996;29;20299;-67
2022/09/05 07:43:54;;;;;;;11.80;8.03;;;21.00;65.50;;;;;;4906142;29;20047;-67
2022/09/05 07:46:30;;;;;;;9.13;8.10;;;21.10;65.30;;;;;;4891362;29;20044;-67
2022/09/05 07:49:06;;;;;;;10.73;8.70;;;21.20;65.30;;;;;;4905681;29;20122;-67
2022/09/05 07:51:39;;;;;;;11.40;8.20;;;21.30;65.00;;;;;;4923088;29;20035;-67
2022/09/05 07:54:18;;;;;;;8.70;7.80;;;21.40;64.80;;;;;;4908591;29;20864;-67
2022/09/05 07:56:48;;;;;;;9.90;7.47;;;21.60;64.30;;;;;;4912894;29;20067;-67
2022/09/05 07:59:15;;;;;;;8.53;7.63;;;21.70;64.40;;;;;;4909245;29;20046;-67
2022/09/05 08:01:44;;;;;;;9.83;8.03;;;21.90;64.10;;;;;;4905709;29;20052;-67
2022/09/05 08:04:34;;;;;;;8.97;8.07;;;22.00;63.90;;;;;;4905900;29;20051;-67
2022/09/05 08:07:30;;;;;;;8.33;7.53;;;22.10;63.60;;;;;;4926904;29;20365;-67
2022/09/05 08:10:09;;;;;;;9.50;6.90;;;22.20;63.40;;;;;;4894101;29;20074;-67
2022/09/05 08:12:49;;;;;;;11.27;7.97;;;22.40;63.30;;;;;;4928860;29;20044;-68
2022/09/05 08:15:24;;;;;;;9.53;7.37;;;22.50;63.00;;;;;;4907888;29;20047;-67
2022/09/05 08:18:11;;;;;;;8.13;7.13;;;22.60;62.50;;;;;;4905739;29;20127;-67
2022/09/05 08:21:05;;;;;;;8.83;7.93;;;22.80;62.60;;;;;;4908664;29;20048;-67
2022/09/05 08:23:45;;;;;;;10.63;7.30;;;22.90;61.90;;;;;;4908166;29;20064;-67
2022/09/05 08:26:27;;;;;;;9.23;8.03;;;23.10;61.80;;;;;;4911749;29;20039;-67
2022/09/05 08:29:04;;;;;;;7.90;7.10;;;23.20;61.70;;;;;;4910844;29;20151;-67
2022/09/05 08:31:44;;;;;;;8.20;7.13;;;23.40;61.40;;;;;;4911436;29;20126;-67
2022/09/05 08:34:17;;;;;;;8.47;7.37;;;23.60;61.10;;;;;;4888046;29;20054;-67
2022/09/05 08:36:54;;;;;;;8.23;7.40;;;23.70;60.80;;;;;;4902803;29;20086;-67
2022/09/05 08:39:25;;;;;;;7.60;6.47;;;23.90;60.30;;;;;;4894055;29;20107;-67
2022/09/05 08:42:06;;;;;;;9.97;7.30;;;24.00;60.40;;;;;;4907528;29;20058;-67
2022/09/05 08:44:35;;;;;;;7.67;6.87;;;24.10;60.10;;;;;;4903167;29;20607;-67
2022/09/05 08:47:19;;;;;;;7.73;6.93;;;24.20;60.00;;;;;;4906134;29;20039;-67
2022/09/05 08:50:19;;;;;;;9.20;7.10;;;24.40;60.00;;;;;;4892580;29;20039;-67
2022/09/05 08:52:58;;;;;;;8.57;7.00;;;24.50;59.00;;;;;;4914715;29;20127;-68
2022/09/05 08:55:42;;;;;;;8.47;7.10;;;24.60;59.40;;;;;;4894619;29;20373;-67
2022/09/05 08:58:29;;;;;;;9.87;7.03;;;24.70;58.90;;;;;;4913060;29;20992;-67
2022/09/05 09:01:30;;;;;;;7.40;6.60;;;24.90;58.40;;;;;;4900389;29;20052;-68
2022/09/05 09:04:34;;;;;;;6.70;6.10;;;25.00;57.90;;;;;;4901525;29;20056;-67
2022/09/05 09:07:09;;;;;;;7.67;6.73;;;25.20;57.90;;;;;;4915630;29;20039;-67
2022/09/05 09:09:40;;;;;;;7.07;6.30;;;25.40;57.40;;;;;;4906120;29;20051;-67
2022/09/05 09:13:00;;;;;;;7.27;5.90;;;25.60;56.80;;;;;;4907875;29;20047;-67
2022/09/05 09:16:05;;;;;;;7.07;6.00;;;25.70;56.40;;;;;;4871908;29;20205;-67
2022/09/05 09:19:03;;;;;;;8.07;6.85;;;25.90;55.90;;;;;;4889724;29;20083;-67
2022/09/05 09:21:29;;;;;;;7.33;6.60;;;26.00;55.40;;;;;;4918627;29;20756;-68
2022/09/05 09:24:13;;;;;;;9.93;7.43;;;26.10;55.70;;;;;;4911941;29;20071;-68
2022/09/05 09:26:53;;;;;;;8.60;6.70;;;26.20;55.30;;;;;;4888902;29;20114;-68
2022/09/05 09:29:22;;;;;;;7.50;6.60;;;26.30;55.60;;;;;;4909925;29;20043;-67
2022/09/05 09:32:06;;;;;;;8.13;7.00;;;26.40;54.90;;;;;;4905625;29;20513;-68
2022/09/05 09:35:02;;;;;;;9.75;6.65;;;26.40;54.80;;;;;;4906967;29;20044;-68
2022/09/05 09:38:03;;;;;;;6.43;5.55;;;26.50;54.50;;;;;;4901347;29;20052;-68
2022/09/05 09:40:47;;;;;;;7.03;5.87;;;26.60;54.20;;;;;;4907547;29;20543;-68
2022/09/05 09:43:21;;;;;;;7.28;5.95;;;26.70;53.90;;;;;;4905529;29;20058;-68
2022/09/05 09:46:26;;;;;;;6.15;5.57;;;26.80;53.80;;;;;;4892806;29;20126;-68
2022/09/05 09:49:19;;;;;;;6.23;5.33;;;26.90;52.70;;;;;;4891702;29;20043;-68
2022/09/05 09:51:48;;;;;;;6.23;5.47;;;27.00;53.40;;;;;;4908197;29;20082;-68
2022/09/05 09:54:38;;;;;;;8.27;6.10;;;27.00;52.80;;;;;;4905743;29;20260;-68
2022/09/05 09:57:38;;;;;;;7.07;4.87;;;27.10;52.90;;;;;;4907315;29;20076;-68
2022/09/05 10:00:10;;;;;;;4.90;4.40;;;27.30;52.50;;;;;;4911047;29;20127;-68
2022/09/05 10:02:58;;;;;;;5.37;4.10;;;27.40;52.30;;;;;;4909346;29;20582;-68
2022/09/05 10:05:36;;;;;;;4.87;3.40;;;27.60;51.90;;;;;;4902944;29;20051;-68
2022/09/05 10:08:20;;;;;;;6.37;3.70;;;27.70;51.70;;;;;;4909559;29;20036;-67
2022/09/05 10:11:06;;;;;;;6.32;4.10;;;27.80;50.50;;;;;;4906048;29;20055;-68
2022/09/05 10:13:51;;;;;;;6.33;3.93;;;27.90;50.30;;;;;;4881002;29;20489;-67
2022/09/05 10:16:26;;;;;;;4.63;3.90;;;28.00;50.30;;;;;;4924550;29;20098;-67
2022/09/05 10:19:29;;;;;;;5.73;5.17;;;28.00;49.50;;;;;;4897094;29;20051;-67
2022/09/05 10:22:08;;;;;;;6.67;5.33;;;28.10;49.00;;;;;;4907539;29;20051;-67
2022/09/05 10:24:39;;;;;;;54.60;40.80;;;28.20;48.40;;;;;;4903464;29;20048;-67
2022/09/05 10:27:31;;;;;;;5.93;4.03;;;28.30;49.40;;;;;;4886599;29;20055;-67
2022/09/05 10:30:05;;;;;;;22.63;15.23;;;28.40;48.40;;;;;;4884028;29;20040;-67
2022/09/05 10:32:40;;;;;;;9.07;4.50;;;28.50;47.80;;;;;;4887138;29;20051;-67
2022/09/05 10:35:08;;;;;;;4.60;3.10;;;28.60;48.00;;;;;;4908677;29;20040;-67
2022/09/05 10:37:42;;;;;;;13.13;7.23;;;28.70;47.50;;;;;;4910396;29;20043;-67
2022/09/05 10:40:12;;;;;;;6.63;4.43;;;28.80;47.80;;;;;;4903016;29;20052;-67
2022/09/05 10:42:46;;;;;;;5.13;4.33;;;28.90;47.60;;;;;;4902601;29;20312;-67
2022/09/05 10:45:14;;;;;;;;;;;29.00;47.40;;;;;;4909560;29;20047;-67
2022/09/05 10:48:07;;;;;;;10.60;6.30;;;29.10;46.70;;;;;;4905284;29;19925;-67
2022/09/05 10:50:43;;;;;;;3.60;2.70;;;29.20;45.80;;;;;;4888039;29;20488;-67
2022/09/05 10:53:37;;;;;;;4.03;2.50;;;29.30;45.40;;;;;;4907901;29;20039;-67
2022/09/05 10:56:11;;;;;;;4.43;2.30;;;29.30;45.30;;;;;;4921814;29;20603;-67
2022/09/05 10:59:00;;;;;;;2.63;1.90;;;29.40;45.50;;;;;;4895352;29;20051;-67
2022/09/05 11:01:32;;;;;;;6.00;4.13;;;29.50;45.20;;;;;;4909094;29;20059;-67
2022/09/05 11:04:03;;;;;;;4.53;2.60;;;29.60;45.20;;;;;;4895320;29;20047;-67
2022/09/05 11:06:56;;;;;;;18.57;8.50;;;29.70;45.20;;;;;;4907390;29;20051;-67
2022/09/05 11:09:38;;;;;;;5.13;2.43;;;29.80;43.30;;;;;;4910495;29;20051;-67
2022/09/05 11:12:18;;;;;;;3.70;3.03;;;29.80;43.70;;;;;;4908232;29;20095;-67
2022/09/05 11:15:01;;;;;;;8.60;7.07;;;29.90;44.80;;;;;;4897346;29;20071;-67
2022/09/05 11:17:30;;;;;;;3.67;3.10;;;30.00;44.00;;;;;;4893098;29;20056;-67
2022/09/05 11:20:13;;;;;;;7.73;5.40;;;30.10;44.10;;;;;;4910785;29;20405;-67
2022/09/05 11:22:41;;;;;;;12.13;9.73;;;30.10;43.80;;;;;;4897519;29;20135;-67
2022/09/05 11:25:28;;;;;;;3.37;2.20;;;30.20;43.40;;;;;;4899361;29;20273;-67
2022/09/05 11:28:00;;;;;;;3.50;1.90;;;30.30;43.80;;;;;;4911914;29;20507;-67
2022/09/05 11:30:36;;;;;;;3.80;2.10;;;30.40;43.30;;;;;;4893374;29;20047;-67
2022/09/05 11:33:34;;;;;;;4.63;3.20;;;30.50;42.90;;;;;;4910671;29;20044;-67
2022/09/05 11:36:13;;;;;;;2.47;2.10;;;30.60;42.80;;;;;;4908813;29;20077;-67
2022/09/05 11:38:58;;;;;;;2.53;1.73;;;30.60;42.80;;;;;;4908133;29;20058;-67
2022/09/05 11:41:42;;;;;;;2.67;1.60;;;30.70;41.70;;;;;;4903483;29;20174;-67
2022/09/05 11:44:28;;;;;;;4.40;2.00;;;30.70;42.10;;;;;;4905350;29;20571;-67
2022/09/05 11:47:11;;;;;;;1.63;1.30;;;30.80;41.20;;;;;;4888808;29;20067;-67
2022/09/05 11:49:58;;;;;;;1.77;1.47;;;30.80;41.00;;;;;;4910332;29;20047;-67
2022/09/05 11:52:42;;;;;;;3.03;1.77;;;30.70;40.80;;;;;;4912921;29;20059;-67
2022/09/05 11:55:07;;;;;;;2.15;1.55;;;30.50;42.00;;;;;;4908009;29;20039;-67
2022/09/05 11:57:52;;;;;;;2.33;1.67;;;30.50;41.80;;;;;;4892730;29;20047;-67
2022/09/05 12:00:19;;;;;;;;;;;30.60;41.10;;;;;;4886344;29;20044;-67
2022/09/05 12:03:06;;;;;;;2.77;1.20;;;30.50;40.90;;;;;;4916044;29;19966;-68
2022/09/05 12:05:53;;;;;;;2.90;1.23;;;30.70;40.70;;;;;;4907664;29;20051;-68
2022/09/05 12:08:44;;;;;;;1.90;1.17;;;30.80;39.00;;;;;;4906955;29;20048;-68
2022/09/05 12:11:41;;;;;;;3.77;1.40;;;30.90;39.50;;;;;;4890918;29;20498;-68
2022/09/05 12:14:19;;;;;;;1.80;1.00;;;31.00;39.40;;;;;;4908002;29;20050;-68
2022/09/05 12:17:03;;;;;;;2.70;1.20;;;31.10;39.70;;;;;;4912158;29;20051;-68
2022/09/05 12:20:00;;;;;;;2.47;1.00;;;31.10;39.60;;;;;;4894533;29;20486;-68
2022/09/05 12:22:57;;;;;;;3.23;1.00;;;30.90;37.50;;;;;;4882614;29;20047;-67
2022/09/05 12:25:49;;;;;;;1.90;1.10;;;30.80;37.80;;;;;;4923351;29;20082;-68
2022/09/05 12:28:31;;;;;;;1.20;0.90;;;30.80;37.10;;;;;;4900325;29;20569;-68
2022/09/05 12:31:26;;;;;;;2.37;1.00;;;30.70;37.40;;;;;;4909586;29;20031;-68
2022/09/05 12:33:52;;;;;;;;;;;30.90;38.60;;;;;;4892794;29;20075;-68
2022/09/05 12:36:57;;;;;;;1.50;0.90;;;31.20;38.80;;;;;;4906658;29;20379;-68
2022/09/05 12:39:42;;;;;;;;;;;31.60;38.20;;;;;;4910500;29;20099;-68
2022/09/05 12:42:08;;;;;;;1.25;0.90;;;31.70;37.60;;;;;;4906805;29;20034;-68
2022/09/05 12:44:44;;;;;;;1.77;0.80;;;31.80;37.10;;;;;;4889599;29;20470;-68
2022/09/05 12:47:12;;;;;;;1.27;0.67;;;32.00;35.10;;;;;;4902272;29;20040;-68
2022/09/05 12:50:05;;;;;;;1.70;0.73;;;32.10;35.00;;;;;;4908192;29;20042;-68
2022/09/05 12:52:32;;;;;;;2.75;1.20;;;32.20;35.50;;;;;;4902903;29;20162;-68
2022/09/05 12:55:24;;;;;;;2.60;0.88;;;32.10;35.60;;;;;;4903822;29;20146;-68
2022/09/05 12:57:57;;;;;;;2.10;0.90;;;32.10;36.10;;;;;;4922965;29;20048;-68
2022/09/05 13:00:23;;;;;;;1.75;1.00;;;32.10;36.20;;;;;;4893577;29;20048;-68
2022/09/05 13:03:01;;;;;;;2.05;0.70;;;32.10;35.80;;;;;;4915621;29;20060;-68
2022/09/05 13:06:07;;;;;;;4.22;0.85;;;32.10;34.90;;;;;;4908346;29;20411;-68
2022/09/05 13:08:56;;;;;;;1.75;1.00;;;32.10;34.30;;;;;;4847386;29;20055;-68
2022/09/05 13:11:23;;;;;;;2.10;1.05;;;32.10;34.40;;;;;;4906997;29;20184;-68
2022/09/05 13:14:22;;;;;;;1.90;0.88;;;32.10;34.80;;;;;;4903808;29;20139;-68
2022/09/05 13:16:49;;;;;;;1.70;0.85;;;32.00;34.70;;;;;;4912311;29;20040;-69
2022/09/05 13:19:32;;;;;;;2.55;0.95;;;31.90;35.80;;;;;;4886834;29;20852;-69
2022/09/05 13:22:00;;;;;;;3.38;1.13;;;31.90;35.90;;;;;;4888019;29;20044;-68
2022/09/05 13:24:33;;;;;;;1.30;0.70;;;32.00;35.60;;;;;;4907909;29;20044;-68
2022/09/05 13:27:12;;;;;;;1.48;0.70;;;32.00;35.30;;;;;;4909786;29;20044;-68
2022/09/05 13:29:53;;;;;;;1.45;0.63;;;31.90;34.80;;;;;;4895912;29;20039;-69
2022/09/05 13:32:32;;;;;;;1.27;0.85;;;31.70;34.60;;;;;;4906251;29;20438;-68
2022/09/05 13:35:18;;;;;;;1.00;0.70;;;31.50;34.70;;;;;;4904596;29;20078;-68
2022/09/05 13:38:09;;;;;;;2.03;0.60;;;31.30;35.20;;;;;;4921216;29;20139;-68
2022/09/05 13:40:45;;;;;;;1.27;0.60;;;31.10;35.50;;;;;;4901301;29;20071;-68
2022/09/05 13:43:26;;;;;;;1.52;0.60;;;31.20;35.30;;;;;;4916622;29;20070;-68
2022/09/05 13:46:09;;;;;;;2.83;0.73;;;31.30;35.00;;;;;;4912518;29;20031;-68
2022/09/05 13:49:09;;;;;;;1.43;0.60;;;31.40;34.10;;;;;;4900298;29;20103;-68
2022/09/05 13:51:42;;;;;;;2.07;0.60;;;31.30;33.90;;;;;;4913109;29;20068;-68
2022/09/05 13:54:15;;;;;;;1.83;0.98;;;31.30;34.60;;;;;;4905386;29;20051;-69
2022/09/05 13:57:15;;;;;;;1.07;0.70;;;31.50;34.70;;;;;;4909282;29;20051;-68
2022/09/05 13:59:59;;;;;;;1.37;0.60;;;31.70;34.50;;;;;;4889949;29;20055;-68
2022/09/05 14:02:47;;;;;;;1.55;0.93;;;31.90;33.80;;;;;;4912303;29;20546;-68
2022/09/05 14:05:44;;;;;;;1.35;0.60;;;32.00;35.00;;;;;;4904654;29;20051;-68
2022/09/05 14:08:32;;;;;;;1.05;0.70;;;31.90;33.10;;;;;;4907747;29;20047;-68
2022/09/05 14:11:07;;;;;;;1.45;0.60;;;31.60;33.70;;;;;;4905341;29;20047;-68
2022/09/05 14:14:03;;;;;;;1.17;0.60;;;31.30;34.00;;;;;;4886952;29;20062;-68